Time;durP1;ratioP1;P1;durP2;ratioP2;P2;SDS_P1;SDS_P2;PMS_P1;PMS_P2;Temp;Humidity;BMP_temperature;BMP_pressure;BME280_temperature;BME280_humidity;BME280_pressure;Samples;Min_cycle;Max_cycle;Signal;HPM_P1;HPM_P2
2023/05/29 00:01:56;;;;;;;5.73;2.90;;;12.90;99.90;;;;;;5074921;28;21031;-68
2023/05/29 00:04:24;;;;;;;5.53;2.20;;;12.90;99.90;;;;;;5055913;28;20575;-68
2023/05/29 00:06:52;;;;;;;7.43;2.80;;;12.90;99.90;;;;;;5059035;28;20491;-69
2023/05/29 00:09:20;;;;;;;7.17;2.60;;;12.90;99.90;;;;;;5065722;28;20705;-68
2023/05/29 00:11:52;;;;;;;10.77;2.73;;;12.90;99.90;;;;;;5057137;28;20469;-68
2023/05/29 00:14:22;;;;;;;7.73;3.10;;;12.80;99.90;;;;;;5065553;28;22572;-68
2023/05/29 00:16:50;;;;;;;6.90;2.80;;;12.70;99.90;;;;;;5059863;28;20568;-67
2023/05/29 00:19:19;;;;;;;8.80;2.90;;;12.70;99.90;;;;;;5056415;28;20476;-68
2023/05/29 00:21:50;;;;;;;5.73;3.33;;;12.70;99.90;;;;;;5070958;28;20465;-67
2023/05/29 00:24:18;;;;;;;5.00;2.50;;;12.60;99.90;;;;;;5077423;28;20589;-68
2023/05/29 00:26:46;;;;;;;5.50;2.73;;;12.60;99.90;;;;;;5054968;28;20499;-67
2023/05/29 00:29:15;;;;;;;6.23;2.70;;;12.50;99.90;;;;;;5061897;28;20566;-67
2023/05/29 00:31:43;;;;;;;3.90;2.40;;;12.40;99.90;;;;;;5070941;28;20891;-68
2023/05/29 00:34:11;;;;;;;8.10;2.60;;;12.40;99.90;;;;;;5051199;28;20492;-67
2023/05/29 00:36:39;;;;;;;7.17;2.93;;;12.40;99.90;;;;;;5061782;28;21395;-67
2023/05/29 00:39:09;;;;;;;8.03;2.80;;;12.30;99.90;;;;;;5052072;28;23905;-68
2023/05/29 00:41:37;;;;;;;5.90;2.50;;;12.30;99.90;;;;;;5065281;28;20521;-67
2023/05/29 00:44:05;;;;;;;6.30;3.20;;;12.20;99.90;;;;;;5066836;28;20495;-67
2023/05/29 00:46:34;;;;;;;7.07;2.47;;;12.20;99.90;;;;;;5063451;28;20492;-67
2023/05/29 00:49:05;;;;;;;6.33;2.60;;;12.10;99.90;;;;;;5062268;28;20483;-68
2023/05/29 00:51:33;;;;;;;7.37;2.77;;;12.00;99.90;;;;;;5050729;28;20575;-68
2023/05/29 00:54:01;;;;;;;9.23;2.93;;;12.00;99.90;;;;;;5053261;28;20494;-68
2023/05/29 00:56:29;;;;;;;6.13;2.37;;;12.00;99.90;;;;;;5056423;28;20491;-68
2023/05/29 00:58:57;;;;;;;7.90;2.73;;;11.90;99.90;;;;;;5063088;28;20472;-67
2023/05/29 01:01:26;;;;;;;6.23;2.47;;;11.80;99.90;;;;;;5055674;28;20473;-68
2023/05/29 01:03:58;;;;;;;7.13;2.50;;;11.80;99.90;;;;;;5057633;28;20629;-67
2023/05/29 01:06:28;;;;;;;8.83;2.53;;;11.70;99.90;;;;;;5076461;28;20476;-68
2023/05/29 01:08:56;;;;;;;7.37;2.60;;;11.60;99.90;;;;;;5068724;28;20563;-68
2023/05/29 01:11:32;;;;;;;8.97;3.40;;;11.60;99.90;;;;;;5058542;28;20485;-68
2023/05/29 01:14:07;;;;;;;5.50;2.40;;;11.50;99.90;;;;;;5064267;28;20523;-68
2023/05/29 01:16:44;;;;;;;7.60;2.73;;;11.50;99.90;;;;;;5056262;28;20484;-68
2023/05/29 01:19:24;;;;;;;7.80;3.03;;;11.40;99.90;;;;;;5055378;28;20472;-68
2023/05/29 01:22:02;;;;;;;8.10;3.27;;;11.30;99.90;;;;;;5055163;28;20468;-68
2023/05/29 01:24:38;;;;;;;8.80;2.90;;;11.20;99.90;;;;;;5055751;28;20480;-68
2023/05/29 01:27:10;;;;;;;8.60;2.70;;;11.20;99.90;;;;;;5059157;28;20574;-68
2023/05/29 01:29:40;;;;;;;8.87;2.63;;;11.10;99.90;;;;;;5050669;28;20606;-68
2023/05/29 01:32:09;;;;;;;7.33;2.50;;;11.00;99.90;;;;;;5056894;28;20480;-68
2023/05/29 01:34:37;;;;;;;11.90;2.90;;;10.90;99.90;;;;;;5070227;28;20936;-68
2023/05/29 01:37:05;;;;;;;6.17;2.60;;;10.80;99.90;;;;;;5050371;28;21884;-68
2023/05/29 01:39:34;;;;;;;9.27;2.83;;;10.80;99.90;;;;;;5051171;28;20851;-68
2023/05/29 01:42:02;;;;;;;9.63;2.67;;;10.70;99.90;;;;;;5054593;28;20481;-68
2023/05/29 01:44:32;;;;;;;10.50;2.77;;;10.70;99.90;;;;;;5053449;28;20598;-68
2023/05/29 01:47:01;;;;;;;6.00;2.40;;;10.60;99.90;;;;;;5051863;28;21750;-69
2023/05/29 01:49:30;;;;;;;10.00;2.93;;;10.60;99.90;;;;;;5044387;28;20605;-69
2023/05/29 01:51:59;;;;;;;5.70;2.43;;;10.60;99.90;;;;;;5049003;28;20569;-69
2023/05/29 01:54:28;;;;;;;4.97;2.30;;;10.50;99.90;;;;;;5044299;28;23631;-69
2023/05/29 01:56:56;;;;;;;8.60;2.50;;;10.50;99.90;;;;;;5068457;28;20504;-68
2023/05/29 01:59:26;;;;;;;6.03;2.30;;;10.50;99.90;;;;;;5069943;28;20468;-69
2023/05/29 02:01:55;;;;;;;7.10;3.00;;;10.50;99.90;;;;;;5074132;28;20472;-68
2023/05/29 02:04:23;;;;;;;6.07;2.30;;;10.40;99.90;;;;;;5071157;28;22398;-69
2023/05/29 02:06:52;;;;;;;8.43;2.60;;;10.30;99.90;;;;;;5081675;28;20516;-68
2023/05/29 02:09:22;;;;;;;7.10;2.47;;;10.30;99.90;;;;;;5073254;28;20484;-69
2023/05/29 02:11:50;;;;;;;8.13;2.77;;;10.30;99.90;;;;;;5079692;28;20559;-68
2023/05/29 02:14:18;;;;;;;5.60;2.33;;;10.20;99.90;;;;;;5075201;28;20514;-69
2023/05/29 02:16:46;;;;;;;7.33;2.90;;;10.20;99.90;;;;;;5077233;28;20604;-69
2023/05/29 02:19:16;;;;;;;6.73;2.10;;;10.20;99.90;;;;;;5082889;28;20860;-69
2023/05/29 02:21:43;;;;;;;7.80;2.30;;;10.10;99.90;;;;;;5079222;28;21101;-69
2023/05/29 02:24:11;;;;;;;12.03;3.20;;;10.00;99.90;;;;;;5073835;28;20592;-68
2023/05/29 02:26:40;;;;;;;6.03;2.87;;;10.00;99.90;;;;;;5065083;28;20572;-68
2023/05/29 02:29:08;;;;;;;7.80;2.20;;;10.00;99.90;;;;;;5081086;28;20490;-68
2023/05/29 02:31:36;;;;;;;7.07;2.87;;;10.00;99.90;;;;;;5073043;28;20494;-68
2023/05/29 02:34:07;;;;;;;8.67;2.47;;;9.90;99.90;;;;;;5075731;28;20491;-68
2023/05/29 02:36:37;;;;;;;6.50;2.20;;;9.90;99.90;;;;;;5081486;28;21039;-68
2023/05/29 02:39:06;;;;;;;8.40;3.33;;;9.90;99.90;;;;;;5076781;28;20551;-69
2023/05/29 02:41:34;;;;;;;7.57;3.00;;;9.80;99.90;;;;;;5076804;28;20498;-68
2023/05/29 02:44:02;;;;;;;8.40;3.10;;;9.80;99.90;;;;;;5080664;28;20586;-68
2023/05/29 02:46:30;;;;;;;8.40;3.10;;;9.70;99.90;;;;;;5072309;28;20853;-68
2023/05/29 02:48:58;;;;;;;8.93;3.23;;;9.70;99.90;;;;;;5073456;28;20480;-68
2023/05/29 02:51:27;;;;;;;7.47;2.70;;;9.70;99.90;;;;;;5084537;28;20476;-68
2023/05/29 02:53:56;;;;;;;6.83;2.30;;;9.60;99.90;;;;;;5076057;28;20489;-68
2023/05/29 02:56:25;;;;;;;8.00;2.73;;;9.60;99.90;;;;;;5081676;28;20872;-68
2023/05/29 02:58:53;;;;;;;8.83;3.00;;;9.50;99.90;;;;;;5080422;28;20476;-69
2023/05/29 03:01:21;;;;;;;7.00;2.80;;;9.50;99.90;;;;;;5070962;28;20555;-68
2023/05/29 03:03:49;;;;;;;14.20;4.30;;;9.50;99.90;;;;;;5064696;28;20491;-68
2023/05/29 03:06:20;;;;;;;10.03;3.03;;;9.40;99.90;;;;;;5059900;28;20502;-69
2023/05/29 03:08:49;;;;;;;6.00;2.80;;;9.30;99.90;;;;;;5062057;28;20476;-68
2023/05/29 03:11:19;;;;;;;8.37;2.87;;;9.30;99.90;;;;;;5061559;28;21045;-68
2023/05/29 03:13:49;;;;;;;6.37;2.73;;;9.20;99.90;;;;;;5060689;28;21458;-70
2023/05/29 03:16:17;;;;;;;6.60;2.83;;;9.20;99.90;;;;;;5054877;28;20492;-68
2023/05/29 03:18:45;;;;;;;7.03;2.40;;;9.20;99.90;;;;;;5056318;28;20495;-68
2023/05/29 03:21:13;;;;;;;6.40;2.53;;;9.10;99.90;;;;;;5084689;28;20471;-68
2023/05/29 03:23:41;;;;;;;11.10;2.73;;;9.10;99.90;;;;;;5063253;28;20501;-68
2023/05/29 03:26:10;;;;;;;5.60;2.63;;;9.10;99.90;;;;;;5054890;28;20527;-68
2023/05/29 03:28:39;;;;;;;7.60;3.00;;;9.00;99.90;;;;;;5059323;28;20481;-68
2023/05/29 03:31:08;;;;;;;9.33;2.53;;;9.00;99.90;;;;;;5055384;28;20470;-68
2023/05/29 03:33:37;;;;;;;8.10;2.50;;;9.00;99.90;;;;;;5072556;28;20992;-68
2023/05/29 03:36:07;;;;;;;9.97;3.03;;;9.10;99.90;;;;;;5066249;28;20535;-68
2023/05/29 03:38:35;;;;;;;6.20;2.43;;;9.10;99.90;;;;;;5059869;28;20476;-68
2023/05/29 03:41:03;;;;;;;6.47;2.80;;;9.10;99.90;;;;;;5065380;28;20476;-68
2023/05/29 03:43:31;;;;;;;10.20;2.90;;;9.10;99.90;;;;;;5066322;28;20482;-68
2023/05/29 03:46:01;;;;;;;7.03;3.13;;;9.10;99.90;;;;;;5056866;28;20484;-69
2023/05/29 03:48:29;;;;;;;7.40;2.70;;;9.00;99.90;;;;;;5056887;28;20556;-69
2023/05/29 03:50:57;;;;;;;12.07;3.70;;;9.10;99.90;;;;;;5061732;28;20504;-69
2023/05/29 03:53:25;;;;;;;9.47;2.87;;;9.10;99.90;;;;;;5059146;28;21857;-68
2023/05/29 03:55:53;;;;;;;7.57;2.90;;;9.10;99.90;;;;;;5065238;28;20515;-68
2023/05/29 03:58:21;;;;;;;11.90;3.50;;;9.00;99.90;;;;;;5074285;28;20501;-68
2023/05/29 04:00:49;;;;;;;6.17;2.37;;;9.00;99.90;;;;;;5061339;28;22362;-68
2023/05/29 04:03:19;;;;;;;7.60;2.77;;;9.10;99.90;;;;;;5056444;28;20474;-68
2023/05/29 04:05:47;;;;;;;9.90;3.50;;;9.10;99.90;;;;;;5059857;28;20476;-68
2023/05/29 04:08:15;;;;;;;10.37;4.00;;;9.20;99.90;;;;;;5064504;28;20473;-68
2023/05/29 04:10:44;;;;;;;11.70;3.57;;;9.10;99.90;;;;;;5055568;28;20484;-69
2023/05/29 04:13:12;;;;;;;8.57;2.90;;;9.10;99.90;;;;;;5064317;28;20469;-68
2023/05/29 04:15:41;;;;;;;14.30;4.07;;;9.10;99.90;;;;;;5054565;28;20675;-68
2023/05/29 04:18:09;;;;;;;8.90;3.10;;;9.10;99.90;;;;;;5058028;28;20464;-68
2023/05/29 04:20:39;;;;;;;11.23;3.23;;;9.10;99.90;;;;;;5057407;28;20473;-68
2023/05/29 04:23:07;;;;;;;8.20;2.73;;;9.10;99.90;;;;;;5063083;28;20469;-68
2023/05/29 04:25:36;;;;;;;8.50;3.13;;;9.10;99.90;;;;;;5063157;28;21173;-68
2023/05/29 04:28:04;;;;;;;10.10;3.10;;;9.20;99.90;;;;;;5059934;28;20774;-69
2023/05/29 04:30:33;;;;;;;7.57;2.60;;;9.20;99.90;;;;;;5073876;28;23097;-69
2023/05/29 04:33:02;;;;;;;9.27;3.13;;;9.20;99.90;;;;;;5060768;28;20504;-69
2023/05/29 04:35:31;;;;;;;6.90;2.73;;;9.30;99.90;;;;;;5072151;28;20488;-68
2023/05/29 04:38:00;;;;;;;9.73;2.63;;;9.40;99.90;;;;;;5063129;28;21078;-68
2023/05/29 04:40:28;;;;;;;11.57;3.60;;;9.40;99.90;;;;;;5045757;28;20468;-69
2023/05/29 04:43:00;;;;;;;6.20;2.77;;;9.40;99.90;;;;;;5055816;28;21051;-70
2023/05/29 04:45:28;;;;;;;8.23;3.17;;;9.40;99.90;;;;;;5056577;28;20485;-70
2023/05/29 04:47:56;;;;;;;8.27;3.43;;;9.50;99.90;;;;;;5060913;28;22627;-70
2023/05/29 04:50:24;;;;;;;10.53;4.13;;;9.50;99.90;;;;;;5057347;28;20468;-70
2023/05/29 04:52:52;;;;;;;11.23;3.13;;;9.50;99.90;;;;;;5071355;28;20490;-70
2023/05/29 04:55:22;;;;;;;8.60;2.97;;;9.50;99.90;;;;;;5068931;28;20629;-72
2023/05/29 04:57:51;;;;;;;8.63;2.83;;;9.50;99.90;;;;;;5057475;28;20563;-70
2023/05/29 05:00:20;;;;;;;7.50;3.07;;;9.60;99.90;;;;;;5065611;28;20468;-70
2023/05/29 05:02:50;;;;;;;6.73;2.63;;;9.70;99.90;;;;;;5057903;28;20472;-69
2023/05/29 05:05:18;;;;;;;15.30;3.93;;;9.70;99.90;;;;;;5060782;28;20542;-70
2023/05/29 05:07:46;;;;;;;7.87;3.00;;;9.80;99.90;;;;;;5062308;28;20473;-70
2023/05/29 05:10:14;;;;;;;8.50;3.27;;;9.80;99.90;;;;;;5058132;28;20468;-70
2023/05/29 05:12:44;;;;;;;9.17;3.13;;;9.90;99.90;;;;;;5067165;28;21245;-70
2023/05/29 05:15:13;;;;;;;9.40;3.77;;;9.80;99.90;;;;;;5052117;28;20579;-69
2023/05/29 05:17:41;;;;;;;10.20;3.57;;;9.80;99.90;;;;;;5070379;28;20489;-70
2023/05/29 05:20:11;;;;;;;9.10;3.23;;;9.90;99.90;;;;;;5052342;28;20512;-70
2023/05/29 05:22:39;;;;;;;11.73;3.20;;;9.90;99.90;;;;;;5066915;28;20472;-69
2023/05/29 05:25:07;;;;;;;11.77;3.30;;;9.90;99.90;;;;;;5048488;28;21369;-69
2023/05/29 05:27:35;;;;;;;8.50;2.87;;;9.90;99.90;;;;;;5058710;28;20468;-70
2023/05/29 05:30:06;;;;;;;6.73;3.13;;;9.90;99.90;;;;;;5059787;28;20501;-71
2023/05/29 05:32:34;;;;;;;10.67;2.87;;;9.90;99.90;;;;;;5055331;28;20472;-70
2023/05/29 05:35:03;;;;;;;9.50;3.67;;;10.00;99.90;;;;;;5058324;28;20575;-70
2023/05/29 05:37:31;;;;;;;8.80;3.30;;;10.00;99.90;;;;;;5054677;28;21141;-70
2023/05/29 05:40:00;;;;;;;10.87;3.17;;;10.10;99.90;;;;;;5065993;28;20546;-70
2023/05/29 05:42:28;;;;;;;10.10;2.90;;;10.10;99.90;;;;;;5054626;28;20464;-69
2023/05/29 05:44:56;;;;;;;8.90;2.80;;;10.10;99.90;;;;;;5076062;28;20614;-69
2023/05/29 05:47:27;;;;;;;10.50;3.03;;;10.20;99.90;;;;;;5048864;28;21788;-69
2023/05/29 05:49:55;;;;;;;12.07;3.67;;;10.30;99.90;;;;;;5051747;28;20665;-69
2023/05/29 05:52:30;;;;;;;7.77;2.80;;;10.30;99.90;;;;;;5054528;28;20478;-69
2023/05/29 05:54:58;;;;;;;13.53;3.27;;;10.30;99.90;;;;;;5050961;28;20568;-69
2023/05/29 05:57:27;;;;;;;8.13;3.30;;;10.40;99.90;;;;;;5069223;28;21159;-70
2023/05/29 05:59:55;;;;;;;11.27;3.50;;;10.50;99.90;;;;;;5053812;28;20476;-70
2023/05/29 06:02:24;;;;;;;13.07;3.37;;;10.50;99.90;;;;;;5049951;28;20544;-70
2023/05/29 06:04:52;;;;;;;10.80;3.60;;;10.50;99.90;;;;;;5060418;28;20497;-69
2023/05/29 06:07:21;;;;;;;9.70;3.57;;;10.50;99.90;;;;;;5063032;28;20465;-70
2023/05/29 06:09:49;;;;;;;9.50;3.87;;;10.50;99.90;;;;;;5075287;28;20592;-69
2023/05/29 06:12:17;;;;;;;6.67;3.07;;;10.50;99.90;;;;;;5055714;28;20985;-69
2023/05/29 06:14:51;;;;;;;9.17;3.77;;;10.60;99.90;;;;;;5055161;28;20492;-69
2023/05/29 06:17:19;;;;;;;7.67;3.70;;;10.70;99.90;;;;;;5053594;28;20489;-70
2023/05/29 06:19:51;;;;;;;10.90;3.70;;;10.70;99.90;;;;;;5059815;28;20473;-69
2023/05/29 06:22:19;;;;;;;8.37;3.17;;;10.70;99.90;;;;;;5064123;28;20469;-69
2023/05/29 06:24:47;;;;;;;9.70;3.90;;;10.70;99.90;;;;;;5058614;28;20488;-70
2023/05/29 06:27:15;;;;;;;8.37;3.50;;;10.70;99.90;;;;;;5060966;28;20464;-69
2023/05/29 06:29:43;;;;;;;8.70;3.10;;;10.80;99.90;;;;;;5065220;28;20693;-70
2023/05/29 06:32:11;;;;;;;8.30;3.23;;;10.90;99.90;;;;;;5065916;28;20474;-70
2023/05/29 06:34:39;;;;;;;9.50;2.87;;;10.90;99.90;;;;;;5086128;28;20520;-69
2023/05/29 06:37:09;;;;;;;7.90;3.10;;;10.90;99.90;;;;;;5070174;28;20499;-70
2023/05/29 06:39:36;;;;;;;9.67;3.43;;;11.00;99.90;;;;;;5068178;28;20470;-69
2023/05/29 06:42:05;;;;;;;12.80;3.40;;;11.00;99.90;;;;;;5068566;28;20511;-69
2023/05/29 06:44:33;;;;;;;12.10;3.40;;;11.10;99.90;;;;;;5067769;28;21067;-70
2023/05/29 06:47:01;;;;;;;8.27;2.97;;;11.20;99.90;;;;;;5062531;28;20472;-69
2023/05/29 06:49:29;;;;;;;7.80;3.47;;;11.20;99.90;;;;;;5044293;28;20533;-70
2023/05/29 06:51:57;;;;;;;8.80;2.90;;;11.20;99.90;;;;;;5060965;28;20519;-70
2023/05/29 06:54:26;;;;;;;11.30;3.70;;;11.20;99.90;;;;;;5066086;28;20516;-69
2023/05/29 06:56:55;;;;;;;9.80;3.80;;;11.30;99.90;;;;;;5058992;28;20491;-70
2023/05/29 06:59:39;;;;;;;8.80;3.33;;;11.30;99.90;;;;;;5058340;28;20563;-70
2023/05/29 07:02:07;;;;;;;11.20;3.33;;;11.50;99.90;;;;;;5048844;28;20474;-70
2023/05/29 07:04:35;;;;;;;10.00;3.60;;;11.50;99.90;;;;;;5064358;28;20599;-69
2023/05/29 07:07:04;;;;;;;13.07;4.17;;;11.60;99.90;;;;;;5051439;28;20571;-70
2023/05/29 07:09:36;;;;;;;10.77;3.87;;;11.60;99.90;;;;;;5060938;28;20478;-70
2023/05/29 07:12:04;;;;;;;6.70;3.07;;;11.70;99.90;;;;;;5057297;28;21040;-71
2023/05/29 07:14:32;;;;;;;7.80;3.50;;;11.70;99.90;;;;;;5052549;28;21069;-70
2023/05/29 07:17:00;;;;;;;5.87;3.10;;;11.70;99.90;;;;;;5038509;28;20489;-70
2023/05/29 07:19:29;;;;;;;9.57;4.30;;;11.70;99.90;;;;;;5050265;28;20489;-70
2023/05/29 07:21:57;;;;;;;11.27;3.53;;;11.80;99.90;;;;;;5063195;28;20557;-68
2023/05/29 07:24:25;;;;;;;10.70;4.20;;;11.70;99.90;;;;;;5050061;28;20491;-71
2023/05/29 07:26:55;;;;;;;10.33;4.47;;;11.70;99.90;;;;;;5057749;28;20476;-68
2023/05/29 07:29:24;;;;;;;8.67;3.33;;;11.80;99.90;;;;;;5050561;28;20469;-68
2023/05/29 07:31:52;;;;;;;10.87;3.80;;;11.90;99.90;;;;;;5054700;28;20468;-68
2023/05/29 07:34:21;;;;;;;8.20;3.70;;;11.90;99.90;;;;;;5043623;28;21258;-69
2023/05/29 07:36:59;;;;;;;7.30;3.20;;;12.00;99.90;;;;;;5061956;28;20489;-69
2023/05/29 07:39:27;;;;;;;6.50;3.07;;;12.00;99.90;;;;;;5055246;28;20469;-68
2023/05/29 07:41:57;;;;;;;10.27;3.30;;;12.20;99.90;;;;;;5056523;28;20460;-68
2023/05/29 07:44:25;;;;;;;9.33;3.00;;;12.30;99.90;;;;;;5056461;28;20493;-68
2023/05/29 07:46:53;;;;;;;7.13;3.47;;;12.40;99.90;;;;;;5066124;28;20520;-69
2023/05/29 07:49:21;;;;;;;10.40;3.43;;;12.40;99.90;;;;;;5073090;28;21092;-69
2023/05/29 07:51:49;;;;;;;11.17;2.90;;;12.60;99.90;;;;;;5056908;28;20506;-69
2023/05/29 07:54:20;;;;;;;11.57;3.40;;;12.70;99.90;;;;;;5058218;28;20493;-69
2023/05/29 07:56:48;;;;;;;7.50;3.17;;;12.70;99.90;;;;;;5054503;28;20850;-68
2023/05/29 07:59:18;;;;;;;10.50;3.40;;;12.80;99.90;;;;;;5054920;28;20978;-69
2023/05/29 08:01:46;;;;;;;8.87;2.60;;;12.70;99.90;;;;;;5056256;28;21535;-68
2023/05/29 08:04:14;;;;;;;6.20;3.17;;;12.80;99.90;;;;;;5051837;28;20498;-70
2023/05/29 08:06:43;;;;;;;10.47;3.50;;;12.70;99.90;;;;;;5063203;28;20476;-70
2023/05/29 08:09:11;;;;;;;8.63;3.13;;;12.70;99.90;;;;;;5063282;28;21466;-69
2023/05/29 08:11:42;;;;;;;15.27;3.83;;;12.80;99.90;;;;;;5056689;28;20513;-69
2023/05/29 08:14:11;;;;;;;7.10;3.60;;;12.90;99.90;;;;;;5054307;28;20571;-69
2023/05/29 08:16:40;;;;;;;11.00;3.40;;;12.90;99.90;;;;;;5062542;28;20889;-69
2023/05/29 08:19:08;;;;;;;7.10;3.33;;;13.00;99.90;;;;;;5048088;28;20492;-69
2023/05/29 08:21:37;;;;;;;7.10;2.93;;;13.00;99.90;;;;;;5050125;28;20477;-69
2023/05/29 08:24:06;;;;;;;5.40;2.70;;;13.00;99.90;;;;;;5052936;28;20617;-69
2023/05/29 08:26:34;;;;;;;9.13;3.07;;;13.20;99.90;;;;;;5039953;28;20485;-69
2023/05/29 08:29:02;;;;;;;8.00;3.37;;;13.30;99.90;;;;;;5052377;28;20588;-69
2023/05/29 08:31:31;;;;;;;7.80;3.20;;;13.40;99.90;;;;;;5068349;28;20472;-70
2023/05/29 08:34:00;;;;;;;10.80;3.40;;;13.40;99.90;;;;;;5044628;28;21287;-69
2023/05/29 08:36:28;;;;;;;10.93;3.50;;;13.50;99.90;;;;;;5051727;28;20503;-70
2023/05/29 08:38:56;;;;;;;5.90;2.80;;;13.50;99.90;;;;;;5045050;28;22148;-68
2023/05/29 08:41:29;;;;;;;8.20;2.93;;;13.50;99.90;;;;;;5030061;28;20929;-69
2023/05/29 08:43:59;;;;;;;10.60;3.07;;;13.50;99.90;;;;;;5007802;28;20939;-70
2023/05/29 08:46:28;;;;;;;12.53;3.17;;;13.60;99.90;;;;;;5029898;28;20597;-69
2023/05/29 08:49:02;;;;;;;9.53;3.60;;;13.60;99.90;;;;;;5034203;28;20750;-70
2023/05/29 08:51:36;;;;;;;8.00;3.30;;;13.70;99.90;;;;;;5038748;28;21855;-71
2023/05/29 08:54:06;;;;;;;6.93;3.00;;;13.70;99.90;;;;;;5043164;28;20484;-69
2023/05/29 08:56:35;;;;;;;8.90;3.33;;;13.90;99.90;;;;;;5039343;28;20847;-71
2023/05/29 08:59:03;;;;;;;7.83;3.10;;;14.00;99.90;;;;;;5043147;28;20481;-70
2023/05/29 09:01:36;;;;;;;6.80;3.17;;;14.10;99.90;;;;;;5045984;28;21883;-71
2023/05/29 09:04:06;;;;;;;8.27;3.23;;;14.20;99.90;;;;;;5049455;28;20518;-70
2023/05/29 09:06:34;;;;;;;11.47;3.17;;;14.40;99.90;;;;;;5046107;28;20602;-70
2023/05/29 09:09:04;;;;;;;8.00;3.07;;;14.30;99.90;;;;;;5048844;28;20821;-70
2023/05/29 09:11:32;;;;;;;6.73;3.13;;;14.30;99.90;;;;;;5040719;28;21161;-70
2023/05/29 09:14:02;;;;;;;7.57;2.80;;;14.40;99.90;;;;;;5050489;28;20895;-69
2023/05/29 09:16:30;;;;;;;6.60;3.50;;;14.50;99.90;;;;;;5051445;28;20940;-72
2023/05/29 09:19:07;;;;;;;8.07;3.13;;;14.60;99.90;;;;;;5039892;28;20491;-72
2023/05/29 09:21:36;;;;;;;5.77;2.90;;;14.70;99.90;;;;;;5059111;28;20472;-73
2023/05/29 09:24:04;;;;;;;7.17;2.60;;;14.80;99.90;;;;;;5051256;28;20489;-74
2023/05/29 09:26:33;;;;;;;8.03;3.00;;;14.90;99.90;;;;;;5052228;28;20477;-70
2023/05/29 09:29:01;;;;;;;8.27;3.13;;;15.00;99.90;;;;;;5032316;28;20478;-69
2023/05/29 09:31:30;;;;;;;6.57;3.33;;;15.10;99.90;;;;;;5046026;28;20526;-69
2023/05/29 09:34:03;;;;;;;7.80;3.03;;;15.10;99.90;;;;;;5054955;28;20488;-69
2023/05/29 09:36:32;;;;;;;5.23;2.67;;;15.10;99.90;;;;;;5051732;28;21292;-69
2023/05/29 09:39:04;;;;;;;7.47;2.97;;;15.20;99.90;;;;;;5057201;28;20601;-69
2023/05/29 09:41:44;;;;;;;8.30;3.33;;;15.30;99.90;;;;;;5054236;28;20476;-69
2023/05/29 09:44:14;;;;;;;9.30;3.67;;;15.30;99.90;;;;;;5053856;28;20495;-68
2023/05/29 09:46:42;;;;;;;7.50;2.77;;;15.20;99.90;;;;;;5056990;28;20481;-68
2023/05/29 09:49:13;;;;;;;8.90;3.40;;;15.30;99.90;;;;;;5055583;28;20546;-69
2023/05/29 09:51:47;;;;;;;6.27;2.97;;;15.20;99.90;;;;;;5067491;28;20488;-69
2023/05/29 09:54:17;;;;;;;14.00;3.60;;;15.30;99.90;;;;;;5061757;28;21245;-70
2023/05/29 09:56:46;;;;;;;7.60;3.20;;;15.40;99.90;;;;;;5055430;28;20485;-69
2023/05/29 09:59:17;;;;;;;7.93;3.03;;;15.40;99.90;;;;;;5057215;28;20500;-68
2023/05/29 10:01:47;;;;;;;6.43;3.10;;;15.40;99.90;;;;;;5067397;28;20497;-69
2023/05/29 10:04:15;;;;;;;6.87;2.90;;;15.60;99.90;;;;;;5074201;28;20480;-68
2023/05/29 10:06:48;;;;;;;7.30;2.80;;;15.80;99.90;;;;;;5057146;28;20488;-68
2023/05/29 10:09:21;;;;;;;6.00;3.00;;;15.90;99.90;;;;;;5069049;28;20984;-69
2023/05/29 10:11:50;;;;;;;8.27;3.13;;;16.10;99.90;;;;;;5061772;28;20552;-69
2023/05/29 10:14:20;;;;;;;6.90;2.67;;;16.30;99.90;;;;;;5058203;28;20509;-69
2023/05/29 10:16:50;;;;;;;7.13;2.83;;;16.40;99.90;;;;;;5062642;28;20597;-69
2023/05/29 10:19:30;;;;;;;10.03;3.37;;;16.50;99.90;;;;;;5064103;28;20495;-68
2023/05/29 10:22:02;;;;;;;11.07;3.10;;;16.60;99.90;;;;;;5068220;28;20508;-69
2023/05/29 10:24:32;;;;;;;5.93;2.77;;;16.70;99.90;;;;;;5061206;28;20489;-68
2023/05/29 10:27:01;;;;;;;8.03;2.60;;;16.70;99.90;;;;;;5058111;28;21535;-69
2023/05/29 10:29:35;;;;;;;8.43;3.10;;;16.80;99.90;;;;;;5064908;28;20544;-68
2023/05/29 10:32:13;;;;;;;7.33;2.60;;;16.90;99.90;;;;;;5073802;28;20505;-69
2023/05/29 10:34:45;;;;;;;6.00;3.10;;;17.00;99.90;;;;;;5052812;28;20884;-68
2023/05/29 10:37:26;;;;;;;5.80;2.30;;;17.10;99.90;;;;;;5063366;28;21063;-69
2023/05/29 10:39:54;;;;;;;6.67;2.93;;;17.30;99.90;;;;;;5061958;28;20495;-69
2023/05/29 10:42:43;;;;;;;4.80;2.70;;;17.30;99.90;;;;;;5060991;28;21074;-69
2023/05/29 10:45:50;;;;;;;5.43;2.83;;;17.30;99.90;;;;;;5049902;28;20499;-68
2023/05/29 10:48:50;;;;;;;5.83;2.70;;;17.30;99.90;;;;;;5056626;28;20468;-69
2023/05/29 10:51:28;;;;;;;7.33;3.03;;;17.30;99.90;;;;;;5004928;28;20486;-69
2023/05/29 10:53:58;;;;;;;5.13;2.77;;;17.50;99.90;;;;;;5044181;28;20495;-68
2023/05/29 10:56:30;;;;;;;5.40;2.70;;;17.70;99.90;;;;;;5067285;28;20567;-68
2023/05/29 10:59:01;;;;;;;7.97;2.83;;;17.70;99.90;;;;;;5060446;28;20489;-68
2023/05/29 11:01:30;;;;;;;4.63;2.80;;;17.70;99.90;;;;;;5062131;28;20480;-68
2023/05/29 11:04:26;;;;;;;6.53;2.60;;;17.80;99.90;;;;;;5060437;28;20697;-68
2023/05/29 11:06:55;;;;;;;4.20;2.50;;;17.80;99.90;;;;;;5051249;28;20481;-68
2023/05/29 11:09:34;;;;;;;7.00;2.70;;;17.90;99.90;;;;;;5059678;28;20461;-68
2023/05/29 11:12:33;;;;;;;4.90;2.67;;;17.80;99.90;;;;;;5057839;28;20981;-69
2023/05/29 11:15:04;;;;;;;7.30;2.57;;;17.90;99.90;;;;;;5055316;28;20471;-69
2023/05/29 11:17:43;;;;;;;6.33;2.67;;;18.00;99.90;;;;;;5072311;28;20484;-68
2023/05/29 11:20:34;;;;;;;4.77;2.50;;;18.10;99.90;;;;;;5067453;28;20492;-68
2023/05/29 11:23:07;;;;;;;6.40;2.83;;;18.20;99.90;;;;;;5062557;28;20488;-69
2023/05/29 11:25:38;;;;;;;7.33;2.60;;;18.30;99.90;;;;;;5056752;28;20502;-68
2023/05/29 11:28:08;;;;;;;5.13;2.63;;;18.40;99.90;;;;;;5068409;28;20691;-68
2023/05/29 11:30:44;;;;;;;6.50;2.73;;;18.50;99.90;;;;;;5066574;28;20540;-68
2023/05/29 11:33:25;;;;;;;7.17;2.77;;;18.40;99.90;;;;;;5064469;28;20460;-69
2023/05/29 11:35:58;;;;;;;8.07;3.03;;;18.50;99.90;;;;;;5057122;28;20488;-68
2023/05/29 11:38:27;;;;;;;12.03;3.20;;;18.70;99.90;;;;;;5058328;28;20469;-68
2023/05/29 11:40:57;;;;;;;4.07;2.73;;;18.90;99.90;;;;;;5056695;28;20494;-68
2023/05/29 11:43:26;;;;;;;5.57;2.60;;;19.00;99.90;;;;;;5057808;28;20476;-68
2023/05/29 11:45:54;;;;;;;3.50;2.00;;;19.10;98.60;;;;;;5062016;28;20569;-69
2023/05/29 11:48:23;;;;;;;5.43;2.30;;;19.00;99.20;;;;;;5062615;28;20491;-69
2023/05/29 11:50:51;;;;;;;7.87;2.70;;;19.10;99.90;;;;;;5060789;28;20469;-68
2023/05/29 11:53:19;;;;;;;7.17;3.00;;;19.20;99.90;;;;;;5061821;28;20560;-69
2023/05/29 11:55:47;;;;;;;7.20;2.77;;;19.30;97.20;;;;;;5058920;28;20535;-69
2023/05/29 11:58:17;;;;;;;7.13;2.57;;;19.40;99.90;;;;;;5063900;28;21541;-68
2023/05/29 12:00:50;;;;;;;6.90;2.83;;;19.60;97.70;;;;;;5066463;28;21039;-68
2023/05/29 12:03:18;;;;;;;5.70;2.77;;;19.80;97.10;;;;;;5064019;28;20480;-69
2023/05/29 12:05:52;;;;;;;7.00;2.50;;;19.80;99.90;;;;;;5062163;28;20628;-69
2023/05/29 12:08:22;;;;;;;5.13;2.57;;;19.90;86.50;;;;;;5066871;28;20479;-69
2023/05/29 12:10:51;;;;;;;5.27;2.93;;;19.90;94.60;;;;;;5063898;28;20469;-69
2023/05/29 12:13:22;;;;;;;6.77;2.53;;;20.00;99.90;;;;;;5059039;28;20583;-68
2023/05/29 12:15:53;;;;;;;5.00;2.30;;;20.20;94.40;;;;;;5064820;28;20624;-68
2023/05/29 12:18:22;;;;;;;5.63;2.50;;;20.40;92.10;;;;;;5062162;28;20533;-68
2023/05/29 12:20:50;;;;;;;6.03;3.00;;;20.40;79.10;;;;;;5059920;28;20585;-68
2023/05/29 12:23:20;;;;;;;9.40;3.00;;;20.40;89.40;;;;;;5057189;28;20559;-68
2023/05/29 12:25:48;;;;;;;6.23;2.60;;;20.50;92.20;;;;;;5057828;28;20608;-69
2023/05/29 12:28:17;;;;;;;5.30;2.50;;;20.60;92.00;;;;;;5065917;28;20563;-69
2023/05/29 12:30:50;;;;;;;7.30;2.40;;;20.70;85.20;;;;;;5066293;28;20472;-68
2023/05/29 12:33:29;;;;;;;6.40;2.63;;;20.60;72.20;;;;;;5055469;28;20591;-69
2023/05/29 12:36:06;;;;;;;6.63;2.83;;;20.70;76.40;;;;;;5055516;28;20494;-69
2023/05/29 12:38:36;;;;;;;5.80;2.73;;;20.80;73.70;;;;;;5062521;28;20898;-68
2023/05/29 12:41:04;;;;;;;5.40;2.73;;;20.90;67.50;;;;;;5055076;28;20531;-69
2023/05/29 12:43:32;;;;;;;6.10;2.60;;;20.90;66.90;;;;;;5073050;28;20469;-68
2023/05/29 12:46:01;;;;;;;6.63;3.00;;;21.00;67.20;;;;;;5059772;28;20569;-69
2023/05/29 12:48:31;;;;;;;4.73;2.57;;;21.10;73.80;;;;;;5057923;28;20472;-68
2023/05/29 12:50:59;;;;;;;5.60;2.60;;;21.30;72.10;;;;;;5061433;28;20504;-68
2023/05/29 12:53:31;;;;;;;3.27;2.60;;;21.50;73.50;;;;;;5059621;28;20461;-68
2023/05/29 12:55:59;;;;;;;5.47;2.60;;;21.60;69.50;;;;;;5065092;28;20593;-68
2023/05/29 12:58:28;;;;;;;4.17;2.30;;;21.70;67.30;;;;;;5058066;28;20465;-68
2023/05/29 13:00:57;;;;;;;7.30;2.90;;;21.90;62.80;;;;;;5056133;28;20496;-68
2023/05/29 13:03:26;;;;;;;4.00;1.97;;;22.00;66.40;;;;;;5071910;28;20553;-67